メインページ
METAR-TAF:

METAR-TAF

空港 :

ウアリ・ブーメディアン空港

アルジェ, アルジェリア

緯度: 36-43N, 経度: 003-15E, 海抜: 25m

現時点の気象観測

当レポートは16分前の03:00(UTC)に作成
の風 2kt
気温 18°C
湿度 88%
気圧 1020 hPa
視程10km以上
高度2300ftの雲はほとんどない

METAR: DAAG 250300Z 09002KT 9999 FEW023 18/16 Q1020

時間: 04:16 (03:16 UTC)

予報

当レポートは4時間16分前の23:00(UTC)に作成
予報は25日の 00時(UTC)から 25日の 24時(UTC)まで有効
変向風 2kt
視程10km以上
高度2300ftの雲はほとんどない
25日の 09時(UTC)から 25日の 12時(UTC)まで徐々に
東/北東の風 12kt
25日の 18時(UTC)から 25日の 21時(UTC)まで徐々に
変向風 2kt

TAF: DAAG 242300Z 2500/2524 VRB02KT 9999 FEW023 BECMG 2509/2512 06012KT BECMG 2518/2521 VRB02KT

4,000以上の空港の気象観測と天気予報(METAR報とTAF報)

利用可能な観測所は地図上に黄色い丸と赤い丸で示す。

丸の上にカーソルを重ねると観測所名を参照できる。

次にクリックすると気象観測と天気予報を参照できる。

マップの切り替え:黒色「×」印の緑ボタンをクリックして拡大、「-」印の緑ボタンをクリックして縮小、緑色の三角印をクリックして隣りの地図に切り替え


METAR-TAF: